Gaschem Bremen — DGLB2 — position and weather

sailwx.info

Track history (hours):
 
Tides and Currents Weather Stations Pressure Air Temp Water Temp Dewpoint Dewpoint Depression Visibility Wind Speed Wind Dir Waves Ship Positions

Gaschem Bremen

Last reported at 2018-Feb-22 02:59 UTC. Time now 2018-Feb-22 03:17 UTC.
Position N 56°06' W 003°06'.

Length 173 m; draft 6.2 m.

Type: Ship. MMSI: 218859000.

Date/timePositionNaut miles runAvg speedWind from/ knotsBaromVisibWave heightAir tempDewpointWater temp
2018-Feb-22 02:59N 56°06' W 003°06'0 0.0
2018-Feb-22 02:29N 56°06' W 003°06'0 0.0
2018-Feb-22 01:59N 56°06' W 003°06'0 0.0
2018-Feb-22 01:29N 56°06' W 003°06'0 0.1
2018-Feb-22 00:59N 56°06' W 003°06'0 0.0
2018-Feb-22 00:29N 56°06' W 003°06'0 0.0
2018-Feb-21 23:59N 56°06' W 003°06'0 0.0
2018-Feb-21 23:29N 56°06' W 003°06'0 0.1
2018-Feb-21 22:59N 56°06' W 003°06'0 0.1
2018-Feb-21 22:29N 56°06' W 003°06'0 0.1
2018-Feb-21 21:59N 56°06' W 003°06'0 0.0
2018-Feb-21 21:29N 56°06' W 003°06'0 0.0
2018-Feb-21 20:59N 56°06' W 003°06'0 0.1
2018-Feb-21 20:29N 56°06' W 003°06'0 0.1
2018-Feb-21 19:59N 56°06' W 003°06'0 0.1
2018-Feb-21 19:29N 56°06' W 003°06'0 0.1
2018-Feb-21 18:59N 56°06' W 003°06'0 0.0
2018-Feb-21 18:29N 56°06' W 003°06'3 6.7
2018-Feb-21 18:00N 56°06' W 003°00'3698.7 100 / 101026.9 6.1 4.6 4.0
2018-Feb-21 17:59N 56°06' W 003°06'0 0.0
2018-Feb-21 17:29N 56°06' W 003°06'0 0.0
2018-Feb-21 16:59N 56°06' W 003°06'0 0.0
2018-Feb-21 16:29N 56°06' W 003°06'0 0.0
2018-Feb-21 15:59N 56°06' W 003°06'0 0.0
2018-Feb-21 15:29N 56°06' W 003°06'0 0.0
2018-Feb-21 14:59N 56°06' W 003°06'0 0.0
2018-Feb-21 14:29N 56°06' W 003°06'0 0.0
2018-Feb-21 13:59N 56°06' W 003°06'0 0.0
2018-Feb-21 13:29N 56°06' W 003°06'0 0.0
2018-Feb-21 12:59N 56°06' W 003°06'0 0.1
2018-Feb-21 12:29N 56°06' W 003°06'0 0.0
2018-Feb-21 11:59N 56°06' W 003°06'0 0.0
2018-Feb-21 11:29N 56°06' W 003°06'0 0.2
2018-Feb-21 10:59N 56°06' W 003°06'0 0.1
2018-Feb-21 10:29N 56°06' W 003°06'0 0.1
2018-Feb-21 10:00N 56°06' W 003°06'2 4.2
2018-Feb-21 09:31N 56°07' W 003°02'713.3
2018-Feb-21 09:00N 56°07' W 002°50'197.7
2018-Feb-21 09:00N 56°06' W 002°48'611.9 290 / 41029.410.8 6.4 0.7 6.0
2018-Feb-21 08:30N 56°07' W 002°38'714.2
2018-Feb-21 08:00N 56°07' W 002°25'714.2
2018-Feb-21 07:30N 56°04' W 002°13'714.0
2018-Feb-21 07:00N 56°01' W 002°02'713.9
2018-Feb-21 06:30N 55°57' W 001°52'713.6
2018-Feb-21 06:00N 55°53' W 001°42'713.6
2018-Feb-21 05:30N 55°49' W 001°32'713.6
2018-Feb-21 05:00N 55°44' W 001°23'813.8
2018-Feb-21 04:24N 55°40' W 001°11'614.1
2018-Feb-21 03:59N 55°36' W 001°02'1716.9
2018-Feb-21 03:00N 55°24' W 000°42'8814.7 010 / 191027.8 5.4 6.1 4.1
2018-Feb-20 21:00N 54°18' E 001°00'92 7.7 050 / 61025.4 5.4 6.9 2.2 4.0
2018-Feb-20 09:00N 53°12' E 002°48'7216.3 150 / 121017.8 2.2 6.3 2.6 6.0
2018-Feb-20 04:33N 51°60' E 002°41'217.2
2018-Feb-20 04:27N 51°58' E 002°41'816.9
2018-Feb-20 04:00N 51°50' E 002°39'816.9
2018-Feb-20 03:31N 51°43' E 002°32'916.8
2018-Feb-20 03:00N 51°37' E 002°23'816.9
2018-Feb-20 02:30N 51°30' E 002°15'816.4
2018-Feb-20 02:00N 51°23' E 002°10'816.6
2018-Feb-20 01:31N 51°15' E 002°04'816.2
2018-Feb-20 01:01N 51°11' E 001°53'815.8
2018-Feb-20 00:30N 51°06' E 001°44'815.4
2018-Feb-20 00:00N 50°60' E 001°36'714.0
2018-Feb-19 23:30N 50°54' E 001°30'714.0
2018-Feb-19 23:00N 50°47' E 001°26'2314.0
2018-Feb-19 21:24N 50°30' E 001°02'1314.5
2018-Feb-19 20:30N 50°25' E 000°44'1314.6
2018-Feb-19 19:37N 50°22' E 000°24'114.4
2018-Feb-19 19:30N 50°21' E 000°22'714.2
2018-Feb-19 19:00N 50°19' E 000°11'714.1
2018-Feb-19 18:30N 50°17' E 000°01'713.9
2018-Feb-19 18:00N 50°14' W 000°09'813.8
2018-Feb-19 17:27N 50°08' W 000°16'613.8
2018-Feb-19 17:00N 50°02' W 000°21'713.3
2018-Feb-19 16:30N 49°56' W 000°24'715.0
2018-Feb-19 16:00N 49°49' W 000°24'815.5
2018-Feb-19 15:30N 49°42' W 000°19'816.1
2018-Feb-19 15:00N 49°36' W 000°10'714.1
2018-Feb-19 14:31N 49°31' W 000°03'612.8
2018-Feb-19 14:01N 49°29' E 000°06'3 5.1
2018-Feb-19 13:30N 49°29' E 000°10'0 0.2
2018-Feb-19 13:00N 49°29' E 000°11'1 0.1
2018-Feb-19 04:06N 49°29' E 000°12'0 0.0
2018-Feb-19 04:00N 49°29' E 000°12'0 0.0
2018-Feb-17 22:33N 49°29' E 000°12'0 0.0
2018-Feb-17 22:27N 49°29' E 000°12'0 0.0
2018-Feb-17 21:57N 49°29' E 000°12'0 0.0
2018-Feb-17 21:30N 49°29' E 000°12'0 0.0
2018-Feb-17 21:00N 49°29' E 000°12'0 0.0
2018-Feb-17 20:30N 49°29' E 000°12'0 0.0
2018-Feb-17 20:00N 49°29' E 000°12'0 0.0
2018-Feb-17 19:31N 49°29' E 000°12'0 0.0
2018-Feb-17 19:00N 49°29' E 000°12'0 0.0
2018-Feb-17 18:30N 49°29' E 000°12'1 2.3
2018-Feb-17 18:00N 49°29' E 000°10'0 0.1
2018-Feb-17 17:31N 49°29' E 000°10'2 3.0
2018-Feb-17 17:00N 49°28' E 000°08'5 9.0
2018-Feb-17 16:30N 49°30' E 000°02'611.8
2018-Feb-17 16:00N 49°32' W 000°07'3 5.4
2018-Feb-17 15:30N 49°34' W 000°09'0 0.1
2018-Feb-17 11:48N 49°34' W 000°08'0 0.0
2018-Feb-15 21:09N 49°34' W 000°08'0 0.0
2018-Feb-15 20:42N 49°34' W 000°08'0 0.0
2018-Feb-13 22:42N 49°34' W 000°08'0 0.0
2018-Feb-13 22:30N 49°34' W 000°08'1 1.4
2018-Feb-13 22:00N 49°34' W 000°09'5 9.5
2018-Feb-13 21:31N 49°35' W 000°16'815.6
2018-Feb-13 21:00N 49°42' W 000°22'815.1
2018-Feb-13 20:30N 49°49' W 000°24'714.6
2018-Feb-13 20:00N 49°57' W 000°22'713.7
2018-Feb-13 19:30N 50°03' W 000°19'713.7
2018-Feb-13 19:00N 50°10' W 000°17'1213.4
2018-Feb-13 18:08N 50°20' W 000°08'313.7
2018-Feb-13 17:56N 50°23' W 000°06'613.6
2018-Feb-13 17:30N 50°27' W 000°01'713.4
2018-Feb-13 17:00N 50°30' E 000°09'713.7
2018-Feb-13 16:30N 50°32' E 000°19'713.6
2018-Feb-13 16:00N 50°34' E 000°29'713.5
2018-Feb-13 15:30N 50°37' E 000°39'713.5
2018-Feb-13 15:00N 50°41' E 000°47'713.3
2018-Feb-13 14:30N 50°45' E 000°56'612.9
2018-Feb-13 14:00N 50°49' E 001°04'712.7
2018-Feb-13 13:27N 50°53' E 001°13'512.1
2018-Feb-13 13:00N 50°57' E 001°20'611.2
2018-Feb-13 12:30N 51°01' E 001°26'510.5
2018-Feb-13 12:00N 51°04' E 001°31'510.3
2018-Feb-13 11:31N 51°08' E 001°37'510.7
2018-Feb-13 11:00N 51°12' E 001°43'611.2
2018-Feb-13 10:30N 51°16' E 001°48'611.9
2018-Feb-13 10:00N 51°22' E 001°51'612.6
2018-Feb-13 09:31N 51°28' E 001°55'713.7
2018-Feb-13 09:00N 51°33' E 002°03'3196.7
2018-Feb-13 09:00N 51°30' E 002°00'1021.5 180 / 371004.010.8 4.3 0.4 6.0
2018-Feb-13 08:31N 51°38' E 002°11'814.9
2018-Feb-13 08:00N 51°43' E 002°20'1015.3
2018-Feb-13 07:20N 51°51' E 002°31'615.1
2018-Feb-13 06:56N 51°56' E 002°35'25413.1
2018-Feb-12 11:36N 55°36' W 000°60'1215.7
2018-Feb-12 10:50N 55°43' W 001°17'515.7
2018-Feb-12 10:30N 55°46' W 001°24'815.5
2018-Feb-12 10:00N 55°51' W 001°35'815.5
2018-Feb-12 09:30N 55°55' W 001°46'815.1
2018-Feb-12 09:00N 55°60' W 001°57'2116.6
2018-Feb-12 09:00N 56°00' W 001°54'918.1 250 / 251005.427.0 6.2-0.8 4.0
2018-Feb-12 08:31N 56°03' W 002°09'815.4
2018-Feb-12 08:01N 56°06' W 002°21'815.5
2018-Feb-12 07:31N 56°07' W 002°35'815.8
2018-Feb-12 07:01N 56°06' W 002°49'815.5
2018-Feb-12 06:31N 56°03' W 003°02'611.0
2018-Feb-12 06:01N 56°02' W 003°12'4 8.5
2018-Feb-12 05:29N 56°01' W 003°19'  
Track history (hours):
 
Tides and Currents Weather Stations Pressure Air Temp Water Temp Dewpoint Dewpoint Depression Visibility Wind Speed Wind Dir Waves Ship Positions

Gaschem Bremen

Last reported at 2018-Feb-22 02:59 UTC. Time now 2018-Feb-22 03:17 UTC.
Position N 56°06' W 003°06'.

Length 173 m; draft 6.2 m.

Type: Ship. MMSI: 218859000.

Date/timePositionNaut miles runAvg speedWind from/ knotsBaromVisibWave heightAir tempDewpointWater temp
2018-Feb-22 02:59N 56°06' W 003°06'0 0.0
2018-Feb-22 02:29N 56°06' W 003°06'0 0.0
2018-Feb-22 01:59N 56°06' W 003°06'0 0.0
2018-Feb-22 01:29N 56°06' W 003°06'0 0.1
2018-Feb-22 00:59N 56°06' W 003°06'0 0.0
2018-Feb-22 00:29N 56°06' W 003°06'0 0.0
2018-Feb-21 23:59N 56°06' W 003°06'0 0.0
2018-Feb-21 23:29N 56°06' W 003°06'0 0.1
2018-Feb-21 22:59N 56°06' W 003°06'0 0.1
2018-Feb-21 22:29N 56°06' W 003°06'0 0.1
2018-Feb-21 21:59N 56°06' W 003°06'0 0.0
2018-Feb-21 21:29N 56°06' W 003°06'0 0.0
2018-Feb-21 20:59N 56°06' W 003°06'0 0.1
2018-Feb-21 20:29N 56°06' W 003°06'0 0.1
2018-Feb-21 19:59N 56°06' W 003°06'0 0.1
2018-Feb-21 19:29N 56°06' W 003°06'0 0.1
2018-Feb-21 18:59N 56°06' W 003°06'0 0.0
2018-Feb-21 18:29N 56°06' W 003°06'3 6.7
2018-Feb-21 18:00N 56°06' W 003°00'3698.7 100 / 101026.9 6.1 4.6 4.0
2018-Feb-21 17:59N 56°06' W 003°06'0 0.0
2018-Feb-21 17:29N 56°06' W 003°06'0 0.0
2018-Feb-21 16:59N 56°06' W 003°06'0 0.0
2018-Feb-21 16:29N 56°06' W 003°06'0 0.0
2018-Feb-21 15:59N 56°06' W 003°06'0 0.0
2018-Feb-21 15:29N 56°06' W 003°06'0 0.0
2018-Feb-21 14:59N 56°06' W 003°06'0 0.0
2018-Feb-21 14:29N 56°06' W 003°06'0 0.0
2018-Feb-21 13:59N 56°06' W 003°06'0 0.0
2018-Feb-21 13:29N 56°06' W 003°06'0 0.0
2018-Feb-21 12:59N 56°06' W 003°06'0 0.1
2018-Feb-21 12:29N 56°06' W 003°06'0 0.0
2018-Feb-21 11:59N 56°06' W 003°06'0 0.0
2018-Feb-21 11:29N 56°06' W 003°06'0 0.2
2018-Feb-21 10:59N 56°06' W 003°06'0 0.1
2018-Feb-21 10:29N 56°06' W 003°06'0 0.1
2018-Feb-21 10:00N 56°06' W 003°06'2 4.2
2018-Feb-21 09:31N 56°07' W 003°02'713.3
2018-Feb-21 09:00N 56°07' W 002°50'197.7
2018-Feb-21 09:00N 56°06' W 002°48'611.9 290 / 41029.410.8 6.4 0.7 6.0
2018-Feb-21 08:30N 56°07' W 002°38'714.2
2018-Feb-21 08:00N 56°07' W 002°25'714.2
2018-Feb-21 07:30N 56°04' W 002°13'714.0
2018-Feb-21 07:00N 56°01' W 002°02'713.9
2018-Feb-21 06:30N 55°57' W 001°52'713.6
2018-Feb-21 06:00N 55°53' W 001°42'713.6
2018-Feb-21 05:30N 55°49' W 001°32'713.6
2018-Feb-21 05:00N 55°44' W 001°23'813.8
2018-Feb-21 04:24N 55°40' W 001°11'614.1
2018-Feb-21 03:59N 55°36' W 001°02'1716.9
2018-Feb-21 03:00N 55°24' W 000°42'8814.7 010 / 191027.8 5.4 6.1 4.1
2018-Feb-20 21:00N 54°18' E 001°00'92 7.7 050 / 61025.4 5.4 6.9 2.2 4.0
2018-Feb-20 09:00N 53°12' E 002°48'7216.3 150 / 121017.8 2.2 6.3 2.6 6.0
2018-Feb-20 04:33N 51°60' E 002°41'217.2
2018-Feb-20 04:27N 51°58' E 002°41'816.9
2018-Feb-20 04:00N 51°50' E 002°39'816.9
2018-Feb-20 03:31N 51°43' E 002°32'916.8
2018-Feb-20 03:00N 51°37' E 002°23'816.9
2018-Feb-20 02:30N 51°30' E 002°15'816.4
2018-Feb-20 02:00N 51°23' E 002°10'816.6
2018-Feb-20 01:31N 51°15' E 002°04'816.2
2018-Feb-20 01:01N 51°11' E 001°53'815.8
2018-Feb-20 00:30N 51°06' E 001°44'815.4
2018-Feb-20 00:00N 50°60' E 001°36'714.0
2018-Feb-19 23:30N 50°54' E 001°30'714.0
2018-Feb-19 23:00N 50°47' E 001°26'2314.0
2018-Feb-19 21:24N 50°30' E 001°02'1314.5
2018-Feb-19 20:30N 50°25' E 000°44'1314.6
2018-Feb-19 19:37N 50°22' E 000°24'114.4
2018-Feb-19 19:30N 50°21' E 000°22'714.2
2018-Feb-19 19:00N 50°19' E 000°11'714.1
2018-Feb-19 18:30N 50°17' E 000°01'713.9
2018-Feb-19 18:00N 50°14' W 000°09'813.8
2018-Feb-19 17:27N 50°08' W 000°16'613.8
2018-Feb-19 17:00N 50°02' W 000°21'713.3
2018-Feb-19 16:30N 49°56' W 000°24'715.0
2018-Feb-19 16:00N 49°49' W 000°24'815.5
2018-Feb-19 15:30N 49°42' W 000°19'816.1
2018-Feb-19 15:00N 49°36' W 000°10'714.1
2018-Feb-19 14:31N 49°31' W 000°03'612.8
2018-Feb-19 14:01N 49°29' E 000°06'3 5.1
2018-Feb-19 13:30N 49°29' E 000°10'0 0.2
2018-Feb-19 13:00N 49°29' E 000°11'1 0.1
2018-Feb-19 04:06N 49°29' E 000°12'0 0.0
2018-Feb-19 04:00N 49°29' E 000°12'0 0.0
2018-Feb-17 22:33N 49°29' E 000°12'0 0.0
2018-Feb-17 22:27N 49°29' E 000°12'0 0.0
2018-Feb-17 21:57N 49°29' E 000°12'0 0.0
2018-Feb-17 21:30N 49°29' E 000°12'0 0.0
2018-Feb-17 21:00N 49°29' E 000°12'0 0.0
2018-Feb-17 20:30N 49°29' E 000°12'0 0.0
2018-Feb-17 20:00N 49°29' E 000°12'0 0.0
2018-Feb-17 19:31N 49°29' E 000°12'0 0.0
2018-Feb-17 19:00N 49°29' E 000°12'0 0.0
2018-Feb-17 18:30N 49°29' E 000°12'1 2.3
2018-Feb-17 18:00N 49°29' E 000°10'0 0.1
2018-Feb-17 17:31N 49°29' E 000°10'2 3.0
2018-Feb-17 17:00N 49°28' E 000°08'5 9.0
2018-Feb-17 16:30N 49°30' E 000°02'611.8
2018-Feb-17 16:00N 49°32' W 000°07'3 5.4
2018-Feb-17 15:30N 49°34' W 000°09'0 0.1
2018-Feb-17 11:48N 49°34' W 000°08'0 0.0
2018-Feb-15 21:09N 49°34' W 000°08'0 0.0
2018-Feb-15 20:42N 49°34' W 000°08'0 0.0
2018-Feb-13 22:42N 49°34' W 000°08'0 0.0
2018-Feb-13 22:30N 49°34' W 000°08'1 1.4
2018-Feb-13 22:00N 49°34' W 000°09'5 9.5
2018-Feb-13 21:31N 49°35' W 000°16'815.6
2018-Feb-13 21:00N 49°42' W 000°22'815.1
2018-Feb-13 20:30N 49°49' W 000°24'714.6
2018-Feb-13 20:00N 49°57' W 000°22'713.7
2018-Feb-13 19:30N 50°03' W 000°19'713.7
2018-Feb-13 19:00N 50°10' W 000°17'1213.4
2018-Feb-13 18:08N 50°20' W 000°08'313.7
2018-Feb-13 17:56N 50°23' W 000°06'613.6
2018-Feb-13 17:30N 50°27' W 000°01'713.4
2018-Feb-13 17:00N 50°30' E 000°09'713.7
2018-Feb-13 16:30N 50°32' E 000°19'713.6
2018-Feb-13 16:00N 50°34' E 000°29'713.5
2018-Feb-13 15:30N 50°37' E 000°39'713.5
2018-Feb-13 15:00N 50°41' E 000°47'713.3
2018-Feb-13 14:30N 50°45' E 000°56'612.9
2018-Feb-13 14:00N 50°49' E 001°04'712.7
2018-Feb-13 13:27N 50°53' E 001°13'512.1
2018-Feb-13 13:00N 50°57' E 001°20'611.2
2018-Feb-13 12:30N 51°01' E 001°26'510.5
2018-Feb-13 12:00N 51°04' E 001°31'510.3
2018-Feb-13 11:31N 51°08' E 001°37'510.7
2018-Feb-13 11:00N 51°12' E 001°43'611.2
2018-Feb-13 10:30N 51°16' E 001°48'611.9
2018-Feb-13 10:00N 51°22' E 001°51'612.6
2018-Feb-13 09:31N 51°28' E 001°55'713.7
2018-Feb-13 09:00N 51°33' E 002°03'3196.7
2018-Feb-13 09:00N 51°30' E 002°00'1021.5 180 / 371004.010.8 4.3 0.4 6.0
2018-Feb-13 08:31N 51°38' E 002°11'814.9
2018-Feb-13 08:00N 51°43' E 002°20'1015.3
2018-Feb-13 07:20N 51°51' E 002°31'615.1
2018-Feb-13 06:56N 51°56' E 002°35'25413.1
2018-Feb-12 11:36N 55°36' W 000°60'1215.7
2018-Feb-12 10:50N 55°43' W 001°17'515.7
2018-Feb-12 10:30N 55°46' W 001°24'815.5
2018-Feb-12 10:00N 55°51' W 001°35'815.5
2018-Feb-12 09:30N 55°55' W 001°46'815.1
2018-Feb-12 09:00N 55°60' W 001°57'2116.6
2018-Feb-12 09:00N 56°00' W 001°54'918.1 250 / 251005.427.0 6.2-0.8 4.0
2018-Feb-12 08:31N 56°03' W 002°09'815.4
2018-Feb-12 08:01N 56°06' W 002°21'815.5
2018-Feb-12 07:31N 56°07' W 002°35'815.8
2018-Feb-12 07:01N 56°06' W 002°49'815.5
2018-Feb-12 06:31N 56°03' W 003°02'611.0
2018-Feb-12 06:01N 56°02' W 003°12'4 8.5
2018-Feb-12 05:29N 56°01' W 003°19'  

Dump ship's entire track history